Time;durP1;ratioP1;P1;durP2;ratioP2;P2;SDS_P1;SDS_P2;PMS_P1;PMS_P2;Temp;Humidity;BMP_temperature;BMP_pressure;BME280_temperature;BME280_humidity;BME280_pressure;Samples;Min_cycle;Max_cycle;Signal;HPM_P1;HPM_P2
2021/11/02 00:00:59;;;;;;;2.90;1.30;;;11.30;99.90;;;;;;4121965;28;20092;-72
2021/11/02 00:03:01;;;;;;;2.92;1.58;;;11.30;99.90;;;;;;4126332;28;20104;-72
2021/11/02 00:05:02;;;;;;;3.67;1.55;;;11.20;99.90;;;;;;4122428;28;20600;-72
2021/11/02 00:07:03;;;;;;;3.97;1.60;;;11.20;99.90;;;;;;4124192;28;20062;-72
2021/11/02 00:09:07;;;;;;;2.17;1.30;;;11.20;99.90;;;;;;4126393;28;20523;-72
2021/11/02 00:11:08;;;;;;;3.13;1.60;;;11.20;99.90;;;;;;4126306;28;20034;-72
2021/11/02 00:13:08;;;;;;;3.35;1.42;;;11.20;99.90;;;;;;4126825;28;20118;-72
2021/11/02 00:15:09;;;;;;;3.80;1.65;;;11.20;99.90;;;;;;4124613;28;20030;-72
2021/11/02 00:17:15;;;;;;;1.83;1.25;;;11.20;99.90;;;;;;4123736;28;20065;-73
2021/11/02 00:19:15;;;;;;;3.88;1.45;;;11.10;99.90;;;;;;4125605;28;20042;-73
2021/11/02 00:21:16;;;;;;;3.55;1.50;;;11.10;99.90;;;;;;4123008;28;20042;-72
2021/11/02 00:23:17;;;;;;;4.05;1.67;;;11.10;99.90;;;;;;4128272;28;20045;-73
2021/11/02 00:25:18;;;;;;;2.90;1.50;;;11.10;99.90;;;;;;4123934;28;20410;-73
2021/11/02 00:27:27;;;;;;;2.65;1.45;;;11.00;99.90;;;;;;4122463;28;20210;-72
2021/11/02 00:29:28;;;;;;;2.78;1.50;;;11.00;99.90;;;;;;4129086;28;20295;-72
2021/11/02 00:31:29;;;;;;;4.15;1.70;;;11.00;99.90;;;;;;4127926;28;20033;-72
2021/11/02 00:33:29;;;;;;;2.13;1.17;;;10.90;99.90;;;;;;4126426;28;20038;-72
2021/11/02 00:35:31;;;;;;;4.22;1.52;;;10.90;99.90;;;;;;4107258;28;20030;-73
2021/11/02 00:37:32;;;;;;;3.60;1.40;;;10.90;99.90;;;;;;4108895;28;20077;-72
2021/11/02 00:39:33;;;;;;;2.28;1.42;;;10.90;99.90;;;;;;4124296;28;20057;-72
2021/11/02 00:41:33;;;;;;;3.55;1.60;;;10.90;99.90;;;;;;4128487;28;20041;-73
2021/11/02 00:43:35;;;;;;;4.53;1.67;;;10.90;99.90;;;;;;4122651;28;20045;-73
2021/11/02 00:45:36;;;;;;;3.78;1.67;;;10.80;99.90;;;;;;4125666;28;20299;-72
2021/11/02 00:47:38;;;;;;;3.50;1.58;;;10.80;99.90;;;;;;4127222;28;20129;-72
2021/11/02 00:49:40;;;;;;;1.85;1.27;;;10.80;99.90;;;;;;4107239;28;20090;-72
2021/11/02 00:51:41;;;;;;;3.58;1.40;;;10.80;99.90;;;;;;4120278;28;20065;-72
2021/11/02 00:53:41;;;;;;;8.07;1.27;;;10.80;99.90;;;;;;4122589;28;20041;-72
2021/11/02 00:55:42;;;;;;;6.25;1.90;;;10.70;99.90;;;;;;4124702;28;20129;-72
2021/11/02 00:57:43;;;;;;;3.85;1.67;;;10.70;99.90;;;;;;4124313;28;20517;-73
2021/11/02 00:59:44;;;;;;;4.35;1.60;;;10.70;99.90;;;;;;4125352;28;20038;-72
2021/11/02 01:01:45;;;;;;;3.65;1.33;;;10.70;99.90;;;;;;4123485;28;20490;-73
2021/11/02 01:03:45;;;;;;;1.95;1.00;;;10.70;99.90;;;;;;4122323;28;20049;-72
2021/11/02 01:05:46;;;;;;;2.58;1.20;;;10.70;99.90;;;;;;4121220;28;20046;-72
2021/11/02 01:07:47;;;;;;;4.45;1.77;;;10.70;99.90;;;;;;4124501;28;20049;-72
2021/11/02 01:09:48;;;;;;;3.67;1.35;;;10.60;99.90;;;;;;4124661;28;20042;-72
2021/11/02 01:11:49;;;;;;;6.05;1.88;;;10.60;99.90;;;;;;4124160;28;20042;-73
2021/11/02 01:13:49;;;;;;;3.22;1.63;;;10.60;99.90;;;;;;4128161;28;20038;-72
2021/11/02 01:15:50;;;;;;;2.97;1.58;;;10.60;99.90;;;;;;4127312;28;20034;-73
2021/11/02 01:17:51;;;;;;;3.00;1.42;;;10.60;99.90;;;;;;4124336;28;20046;-72
2021/11/02 01:19:51;;;;;;;4.32;1.42;;;10.60;99.90;;;;;;4122541;28;20654;-72
2021/11/02 01:21:52;;;;;;;5.78;1.75;;;10.60;99.90;;;;;;4123771;28;20065;-72
2021/11/02 01:23:52;;;;;;;2.75;1.30;;;10.60;99.90;;;;;;4108542;28;20043;-72
2021/11/02 01:25:53;;;;;;;3.42;1.55;;;10.60;99.90;;;;;;4122540;28;20042;-72
2021/11/02 01:27:54;;;;;;;2.65;1.45;;;10.50;99.90;;;;;;4106327;28;20045;-72
2021/11/02 01:29:55;;;;;;;3.33;1.30;;;10.50;99.90;;;;;;4127660;28;20050;-72
2021/11/02 01:31:55;;;;;;;2.80;1.17;;;10.60;99.90;;;;;;4127325;28;20046;-72
2021/11/02 01:33:56;;;;;;;4.43;1.60;;;10.50;99.90;;;;;;4121899;28;20049;-72
2021/11/02 01:35:56;;;;;;;3.30;1.58;;;10.50;99.90;;;;;;4124793;28;20077;-72
2021/11/02 01:37:57;;;;;;;3.10;1.63;;;10.50;99.90;;;;;;4127079;28;20505;-72
2021/11/02 01:39:59;;;;;;;2.78;1.42;;;10.50;99.90;;;;;;4125596;28;20442;-73
2021/11/02 01:42:01;;;;;;;2.87;1.40;;;10.50;99.90;;;;;;4121935;28;20042;-72
2021/11/02 01:44:03;;;;;;;2.83;1.48;;;10.50;99.90;;;;;;4127272;28;20193;-72
2021/11/02 01:46:04;;;;;;;4.28;1.58;;;10.40;99.90;;;;;;4126660;28;20061;-72
2021/11/02 01:48:06;;;;;;;3.50;1.42;;;10.40;99.90;;;;;;4124950;28;20031;-73
2021/11/02 01:50:07;;;;;;;5.07;1.52;;;10.40;99.90;;;;;;4125615;28;20062;-72
2021/11/02 01:52:08;;;;;;;2.83;1.48;;;10.40;99.90;;;;;;4129886;28;20030;-72
2021/11/02 01:54:08;;;;;;;2.53;1.50;;;10.40;99.90;;;;;;4125710;28;20026;-72
2021/11/02 01:56:10;;;;;;;4.05;1.45;;;10.40;99.90;;;;;;4125468;28;20426;-72
2021/11/02 01:58:13;;;;;;;2.70;1.55;;;10.30;99.90;;;;;;4126662;28;20086;-72
2021/11/02 02:00:17;;;;;;;2.78;1.48;;;10.30;99.90;;;;;;4128191;28;20034;-72
2021/11/02 02:02:54;;;;;;;3.88;1.45;;;10.30;99.90;;;;;;4127643;28;20038;-72
2021/11/02 02:05:22;;;;;;;3.85;1.60;;;10.30;99.90;;;;;;4111578;28;20034;-72
2021/11/02 02:07:42;;;;;;;4.03;1.73;;;10.20;99.90;;;;;;4126564;28;20056;-72
2021/11/02 02:10:11;;;;;;;4.13;1.80;;;10.20;99.90;;;;;;4125668;28;20181;-72
2021/11/02 02:12:40;;;;;;;4.13;1.48;;;10.10;99.90;;;;;;4123974;28;20109;-72
2021/11/02 02:15:02;;;;;;;6.80;2.30;;;10.00;99.90;;;;;;4123043;28;20121;-73
2021/11/02 02:17:12;;;;;;;4.10;1.30;;;10.00;99.90;;;;;;4122502;28;20156;-72
2021/11/02 02:19:42;;;;;;;4.93;1.88;;;10.00;99.90;;;;;;4124416;28;20121;-72
2021/11/02 02:21:51;;;;;;;6.65;1.92;;;10.00;99.90;;;;;;4126728;28;20042;-73
2021/11/02 02:24:08;;;;;;;3.15;1.60;;;9.90;99.90;;;;;;4126561;28;20417;-73
2021/11/02 02:26:28;;;;;;;4.18;1.48;;;10.00;99.90;;;;;;4129037;28;20038;-72
2021/11/02 02:28:37;;;;;;;2.40;1.25;;;9.90;99.90;;;;;;4126533;28;20034;-72
2021/11/02 02:30:45;;;;;;;3.55;1.52;;;9.90;99.90;;;;;;4128044;28;20053;-72
2021/11/02 02:32:49;;;;;;;4.65;1.73;;;9.90;99.90;;;;;;4126726;28;20073;-72
2021/11/02 02:34:54;;;;;;;2.53;1.52;;;9.90;99.90;;;;;;4125597;28;20049;-72
2021/11/02 02:36:56;;;;;;;3.35;1.33;;;9.90;99.90;;;;;;4126859;28;20046;-72
2021/11/02 02:38:59;;;;;;;1.77;1.10;;;10.00;99.90;;;;;;4126957;28;20050;-72
2021/11/02 02:41:03;;;;;;;2.53;1.50;;;10.00;99.90;;;;;;4122176;28;20046;-72
2021/11/02 02:43:04;;;;;;;4.88;1.50;;;10.00;99.90;;;;;;4127750;28;20046;-72
2021/11/02 02:45:07;;;;;;;3.05;1.70;;;10.00;99.90;;;;;;4123568;28;20117;-72
2021/11/02 02:47:08;;;;;;;;;;;10.00;99.90;;;;;;4130021;28;20053;-72
2021/11/02 02:49:12;;;;;;;3.03;1.52;;;10.00;99.90;;;;;;4127698;28;19936;-72
2021/11/02 02:51:14;;;;;;;2.25;1.23;;;10.00;99.90;;;;;;4127825;28;20060;-72
2021/11/02 02:53:16;;;;;;;2.92;1.42;;;10.00;99.90;;;;;;4125629;28;20073;-72
2021/11/02 02:55:19;;;;;;;1.55;1.17;;;10.00;99.90;;;;;;4128746;28;20046;-72
2021/11/02 02:57:22;;;;;;;5.63;1.67;;;9.90;99.90;;;;;;4123384;28;20057;-72
2021/11/02 02:59:24;;;;;;;3.63;1.30;;;9.90;99.90;;;;;;4124768;28;20039;-72
2021/11/02 03:01:25;;;;;;;4.25;1.60;;;9.90;99.90;;;;;;4126538;28;20038;-72
2021/11/02 03:03:26;;;;;;;4.25;1.70;;;9.90;99.90;;;;;;4126679;28;20054;-72
2021/11/02 03:05:28;;;;;;;4.40;1.55;;;9.90;99.90;;;;;;4125156;28;20049;-73
2021/11/02 03:07:30;;;;;;;5.05;1.83;;;9.90;99.90;;;;;;4126373;28;20034;-73
2021/11/02 03:09:32;;;;;;;4.53;1.70;;;9.90;99.90;;;;;;4125906;28;20149;-72
2021/11/02 03:11:34;;;;;;;2.03;1.30;;;9.90;99.90;;;;;;4124077;28;20186;-72
2021/11/02 03:13:37;;;;;;;4.18;1.63;;;9.90;99.90;;;;;;4127646;28;20042;-72
2021/11/02 03:17:51;;;;;;;4.75;2.05;;;9.90;99.90;;;;;;4123576;28;20141;-73
2021/11/02 03:48:45;;;;;;;3.20;1.45;;;9.60;99.90;;;;;;4126524;28;20054;-72
2021/11/02 03:55:19;;;;;;;4.63;1.40;;;9.60;99.90;;;;;;4124589;28;20153;-72
2021/11/02 04:00:04;;;;;;;2.60;1.15;;;9.50;99.90;;;;;;4126353;28;20447;-72
2021/11/02 05:07:16;;;;;;;2.47;1.55;;;9.00;99.90;;;;;;4124648;28;20251;-72
2021/11/02 05:58:42;;;;;;;4.80;2.30;;;9.10;99.90;;;;;;4098059;28;20564;-73
2021/11/02 06:05:49;;;;;;;5.63;2.63;;;9.10;99.90;;;;;;4097493;28;20074;-74
2021/11/02 06:10:54;;;;;;;5.93;3.42;;;9.10;99.90;;;;;;4107354;28;20049;-74
2021/11/02 06:28:07;;;;;;;6.85;4.50;;;9.10;99.90;;;;;;4122732;28;20106;-70
2021/11/02 06:30:09;;;;;;;7.25;4.68;;;9.10;99.90;;;;;;4141557;28;20034;-70
2021/11/02 06:32:20;;;;;;;9.45;4.85;;;9.10;99.90;;;;;;4139710;28;20030;-69
2021/11/02 06:48:24;;;;;;;9.60;5.30;;;9.00;99.90;;;;;;4140053;28;20696;-70
2021/11/02 06:50:58;;;;;;;9.45;5.25;;;9.00;99.90;;;;;;4136725;28;20077;-70
2021/11/02 07:24:51;;;;;;;7.43;3.85;;;8.60;99.90;;;;;;4136538;28;20042;-70
2021/11/02 08:48:34;;;;;;;7.50;3.08;;;9.00;99.90;;;;;;4111679;28;20953;-73
2021/11/02 08:50:41;;;;;;;7.75;3.15;;;9.00;99.90;;;;;;4114042;28;20050;-74
2021/11/02 08:52:50;;;;;;;5.90;3.20;;;9.10;99.90;;;;;;4132845;28;20100;-74
2021/11/02 08:54:53;;;;;;;5.88;3.35;;;9.10;99.90;;;;;;4133918;28;20046;-74
2021/11/02 08:56:55;;;;;;;;;;;9.10;99.90;;;;;;4136319;28;20054;-73
2021/11/02 08:58:56;;;;;;;7.23;3.97;;;9.10;99.90;;;;;;4136085;28;19957;-74
2021/11/02 09:01:00;;;;;;;5.97;3.40;;;9.20;99.90;;;;;;4134427;28;20042;-73
2021/11/02 09:03:18;;;;;;;8.00;3.25;;;9.20;99.90;;;;;;4134157;28;20735;-74
2021/11/02 09:05:25;;;;;;;5.03;2.72;;;9.20;99.90;;;;;;4133557;28;20042;-73
2021/11/02 09:07:28;;;;;;;7.07;2.58;;;9.30;99.90;;;;;;4131576;28;20062;-74
2021/11/02 09:09:37;;;;;;;7.43;3.03;;;9.30;99.90;;;;;;4132276;28;20539;-74
2021/11/02 09:11:40;;;;;;;7.10;3.28;;;9.40;99.90;;;;;;4132933;28;20042;-74
2021/11/02 09:14:02;;;;;;;5.10;2.90;;;9.40;99.90;;;;;;4129991;28;20065;-74
2021/11/02 09:16:04;;;;;;;6.70;2.63;;;9.50;99.90;;;;;;4131901;28;20041;-74
2021/11/02 09:18:07;;;;;;;4.97;2.75;;;9.50;99.90;;;;;;4132836;28;20401;-74
2021/11/02 09:20:09;;;;;;;4.60;2.75;;;9.50;99.90;;;;;;4131462;28;20473;-73
2021/11/02 09:22:12;;;;;;;8.50;3.05;;;9.60;99.90;;;;;;4133758;28;20035;-74
2021/11/02 09:24:16;;;;;;;5.78;2.40;;;9.70;99.90;;;;;;4135136;28;20026;-74
2021/11/02 09:26:20;;;;;;;8.15;3.03;;;9.80;99.90;;;;;;4132916;28;20030;-74
2021/11/02 09:28:23;;;;;;;4.78;2.45;;;9.80;99.90;;;;;;4133517;28;20035;-74
2021/11/02 09:30:25;;;;;;;5.20;2.45;;;9.90;99.90;;;;;;4135515;28;20065;-73
2021/11/02 09:32:26;;;;;;;3.20;2.00;;;10.00;99.90;;;;;;4116458;28;20085;-73
2021/11/02 09:34:28;;;;;;;4.25;2.40;;;10.00;99.90;;;;;;4134002;28;20026;-74
2021/11/02 09:36:41;;;;;;;6.03;2.30;;;10.10;99.90;;;;;;4136105;28;20093;-74
2021/11/02 09:39:02;;;;;;;4.13;2.15;;;10.10;99.90;;;;;;4131307;28;20508;-73
2021/11/02 09:41:08;;;;;;;7.15;2.60;;;10.10;99.90;;;;;;4138214;28;20553;-73
2021/11/02 09:43:24;;;;;;;5.13;2.35;;;10.10;99.90;;;;;;4120342;28;20038;-73
2021/11/02 09:45:53;;;;;;;7.35;2.65;;;10.20;99.90;;;;;;4132470;28;20109;-73
2021/11/02 09:48:14;;;;;;;7.03;2.80;;;10.20;99.90;;;;;;4130702;28;20124;-73
2021/11/02 09:50:40;;;;;;;3.95;1.98;;;10.20;99.90;;;;;;4114987;28;20039;-73
2021/11/02 09:53:28;;;;;;;6.07;2.30;;;10.20;99.90;;;;;;4133888;28;20069;-74
2021/11/02 09:56:01;;;;;;;5.63;2.45;;;10.30;99.90;;;;;;4098478;28;20038;-74
2021/11/02 09:58:05;;;;;;;6.82;2.30;;;10.30;99.90;;;;;;4145565;28;20053;-73
2021/11/02 10:00:29;;;;;;;9.35;2.28;;;10.30;99.90;;;;;;4135384;28;20030;-73
2021/11/02 10:03:09;;;;;;;5.88;1.92;;;10.30;99.90;;;;;;4137570;28;20046;-74
2021/11/02 10:05:35;;;;;;;4.07;2.10;;;10.30;99.90;;;;;;4138118;28;20037;-74
2021/11/02 10:08:11;;;;;;;3.88;1.80;;;10.30;99.90;;;;;;4140223;28;20049;-73
2021/11/02 10:10:17;;;;;;;6.30;2.15;;;10.30;99.90;;;;;;4134324;28;20030;-73
2021/11/02 10:12:21;;;;;;;6.03;2.42;;;10.30;99.90;;;;;;4134222;28;20045;-74
2021/11/02 10:14:54;;;;;;;5.10;2.00;;;10.30;99.90;;;;;;4137835;28;20093;-74
2021/11/02 10:17:12;;;;;;;4.47;2.10;;;10.30;99.90;;;;;;4128331;28;20030;-74
2021/11/02 10:19:58;;;;;;;4.65;2.30;;;10.30;99.90;;;;;;4127739;28;20046;-74
2021/11/02 10:22:43;;;;;;;5.50;1.90;;;10.30;99.90;;;;;;4133279;28;20961;-74
2021/11/02 10:25:04;;;;;;;6.15;2.38;;;10.30;99.90;;;;;;4114014;28;20042;-74
2021/11/02 10:27:24;;;;;;;4.00;2.15;;;10.30;99.90;;;;;;4135733;28;20128;-74
2021/11/02 10:29:42;;;;;;;4.93;1.90;;;10.40;99.90;;;;;;4133472;28;20338;-73
2021/11/02 10:32:03;;;;;;;4.63;1.50;;;10.40;99.90;;;;;;4136644;28;20120;-73
2021/11/02 10:34:22;;;;;;;4.57;1.80;;;10.50;99.90;;;;;;4137093;28;20492;-73
2021/11/02 10:36:42;;;;;;;7.63;1.70;;;10.50;99.90;;;;;;4133136;28;20030;-73
2021/11/02 10:39:06;;;;;;;7.65;2.03;;;10.50;99.90;;;;;;4140066;28;20214;-74
2021/11/02 10:41:16;;;;;;;4.70;1.73;;;10.50;99.90;;;;;;4135426;28;20554;-73
2021/11/02 10:43:45;;;;;;;6.13;1.83;;;10.50;99.90;;;;;;4138038;28;20050;-73
2021/11/02 10:45:55;;;;;;;4.35;1.98;;;10.60;99.90;;;;;;4133285;28;20047;-73
2021/11/02 10:48:11;;;;;;;3.33;1.60;;;10.60;99.90;;;;;;4134248;28;20034;-73
2021/11/02 10:50:13;;;;;;;4.28;1.98;;;10.60;99.90;;;;;;4135272;28;20114;-73
2021/11/02 10:52:27;;;;;;;5.25;1.92;;;10.60;99.90;;;;;;4135191;28;20043;-73
2021/11/02 10:55:03;;;;;;;4.40;1.60;;;10.60;99.90;;;;;;4139039;28;20053;-73
2021/11/02 10:57:14;;;;;;;4.72;1.70;;;10.70;99.90;;;;;;4135608;28;20041;-73
2021/11/02 10:59:16;;;;;;;4.32;1.70;;;10.70;99.90;;;;;;4124239;28;20043;-73
2021/11/02 11:01:18;;;;;;;5.35;2.03;;;10.70;99.90;;;;;;4136062;28;20089;-73
2021/11/02 11:03:24;;;;;;;2.92;1.70;;;10.70;99.90;;;;;;4136376;28;20030;-73
2021/11/02 11:05:26;;;;;;;2.17;1.10;;;10.80;99.90;;;;;;4139068;28;20042;-73
2021/11/02 11:07:29;;;;;;;7.63;1.77;;;10.80;99.90;;;;;;4139311;28;20047;-73
2021/11/02 11:09:30;;;;;;;3.65;1.50;;;10.80;99.90;;;;;;4134573;28;20037;-73
2021/11/02 11:11:36;;;;;;;4.72;1.40;;;10.70;99.90;;;;;;4136006;28;20042;-73
2021/11/02 11:13:38;;;;;;;3.60;1.70;;;10.80;99.90;;;;;;4136725;28;20072;-73
2021/11/02 11:15:42;;;;;;;3.33;1.50;;;10.80;99.90;;;;;;4138949;28;20049;-74
2021/11/02 11:18:07;;;;;;;3.58;1.48;;;10.80;99.90;;;;;;4139525;28;20045;-73
2021/11/02 11:20:11;;;;;;;2.55;1.25;;;10.80;99.90;;;;;;4139051;28;20541;-73
2021/11/02 11:22:17;;;;;;;3.95;1.67;;;10.90;99.90;;;;;;4135652;28;20092;-73
2021/11/02 11:25:01;;;;;;;4.38;1.33;;;10.80;99.90;;;;;;4133998;28;20042;-73
2021/11/02 11:27:05;;;;;;;5.88;1.60;;;10.90;99.90;;;;;;4134684;28;20587;-73
2021/11/02 11:29:07;;;;;;;3.65;1.45;;;10.80;99.90;;;;;;4138227;28;20041;-73
2021/11/02 11:31:08;;;;;;;2.28;1.40;;;10.80;99.90;;;;;;4137332;28;20100;-73
2021/11/02 11:33:15;;;;;;;4.25;1.38;;;10.80;99.90;;;;;;4138279;28;20034;-73
2021/11/02 11:35:16;;;;;;;3.22;1.10;;;10.80;99.90;;;;;;4136938;28;20095;-73
2021/11/02 11:37:27;;;;;;;5.88;1.60;;;10.80;99.90;;;;;;4138191;28;20034;-73
2021/11/02 11:39:30;;;;;;;3.53;1.50;;;10.90;99.90;;;;;;4136157;28;20042;-73
2021/11/02 11:41:33;;;;;;;;;;;10.80;99.90;;;;;;4137170;28;20035;-73
2021/11/02 11:43:35;;;;;;;5.05;2.20;;;10.80;99.90;;;;;;4128082;28;19943;-73
2021/11/02 11:45:39;;;;;;;3.75;1.90;;;10.80;99.90;;;;;;4152132;28;20027;-73
2021/11/02 11:47:40;;;;;;;3.60;1.55;;;10.80;99.90;;;;;;4137577;28;20043;-73
2021/11/02 11:49:45;;;;;;;4.35;1.90;;;10.90;99.90;;;;;;4135003;28;20049;-73
2021/11/02 11:51:54;;;;;;;5.88;2.20;;;10.90;99.90;;;;;;4141178;28;20065;-73
2021/11/02 11:54:00;;;;;;;3.05;1.70;;;10.90;99.90;;;;;;4132642;28;20090;-73
2021/11/02 11:56:05;;;;;;;2.83;1.70;;;11.00;99.90;;;;;;4135228;28;20053;-73
2021/11/02 11:58:21;;;;;;;5.18;1.65;;;11.00;99.90;;;;;;4136312;28;20053;-73
2021/11/02 12:00:26;;;;;;;6.45;1.73;;;11.00;99.90;;;;;;4153516;28;20041;-73
2021/11/02 12:02:32;;;;;;;3.63;1.70;;;11.00;99.90;;;;;;4133285;28;20450;-73
2021/11/02 12:04:52;;;;;;;6.35;2.17;;;11.00;99.90;;;;;;4135223;28;20102;-74
2021/11/02 12:07:05;;;;;;;3.35;1.65;;;11.00;99.90;;;;;;4137458;28;20045;-73
2021/11/02 12:09:18;;;;;;;5.18;1.77;;;11.00;99.90;;;;;;4138447;28;20041;-73
2021/11/02 12:11:21;;;;;;;6.80;1.95;;;11.00;99.90;;;;;;4132801;28;20030;-73
2021/11/02 12:13:22;;;;;;;2.97;1.33;;;11.00;99.90;;;;;;4135301;28;20315;-73
2021/11/02 12:15:23;;;;;;;9.80;2.05;;;11.00;99.90;;;;;;4138446;28;20564;-73
2021/11/02 12:17:25;;;;;;;4.75;2.70;;;11.00;99.90;;;;;;4138177;28;20034;-73
2021/11/02 12:19:39;;;;;;;5.60;2.70;;;11.00;99.90;;;;;;4135308;28;20116;-73
2021/11/02 12:21:43;;;;;;;4.68;2.80;;;11.00;99.90;;;;;;4134733;28;20046;-73
2021/11/02 12:23:48;;;;;;;6.10;2.97;;;11.00;99.90;;;;;;4136438;28;20038;-73
2021/11/02 12:25:53;;;;;;;7.10;3.33;;;11.00;99.90;;;;;;4135182;28;20034;-73
2021/11/02 12:27:55;;;;;;;7.82;3.40;;;11.10;99.90;;;;;;4137988;28;20037;-73
2021/11/02 12:30:05;;;;;;;6.28;3.17;;;11.00;99.90;;;;;;4136255;28;20034;-73
2021/11/02 12:32:07;;;;;;;10.38;3.78;;;11.00;99.90;;;;;;4135294;28;20070;-73
2021/11/02 12:34:15;;;;;;;6.40;2.97;;;11.00;99.90;;;;;;4135085;28;20092;-73
2021/11/02 12:36:25;;;;;;;5.97;2.92;;;11.00;99.90;;;;;;4136136;28;20073;-73
2021/11/02 12:38:42;;;;;;;6.00;2.58;;;11.00;99.90;;;;;;4135674;28;20061;-73
2021/11/02 12:40:45;;;;;;;4.82;2.33;;;11.00;99.90;;;;;;4137433;28;20056;-73
2021/11/02 12:42:47;;;;;;;6.72;2.50;;;11.00;99.90;;;;;;4134953;28;20034;-73
2021/11/02 12:44:49;;;;;;;3.95;2.17;;;11.10;99.90;;;;;;4134268;28;20069;-73
2021/11/02 12:46:54;;;;;;;3.07;2.10;;;11.10;99.90;;;;;;4134387;28;20030;-73
2021/11/02 12:48:59;;;;;;;3.97;2.13;;;11.10;99.90;;;;;;4134031;28;20113;-73
2021/11/02 12:50:59;;;;;;;8.85;2.30;;;11.10;99.90;;;;;;4133591;28;20066;-73
2021/11/02 12:53:01;;;;;;;3.63;1.88;;;11.00;99.90;;;;;;4120801;28;20038;-73
2021/11/02 12:55:09;;;;;;;3.05;1.85;;;11.00;99.90;;;;;;4135129;28;20057;-73
2021/11/02 12:57:13;;;;;;;4.15;1.75;;;11.10;99.90;;;;;;4139152;28;20149;-73
2021/11/02 12:59:20;;;;;;;4.43;2.08;;;11.10;99.90;;;;;;4135603;28;20935;-73
2021/11/02 13:01:35;;;;;;;5.32;1.90;;;11.00;99.90;;;;;;4136497;28;20269;-73
2021/11/02 13:03:42;;;;;;;3.85;1.63;;;11.00;99.90;;;;;;4136270;28;20445;-73
2021/11/02 13:06:06;;;;;;;2.50;1.70;;;11.10;99.90;;;;;;4134904;28;20050;-73
2021/11/02 13:08:12;;;;;;;5.72;1.92;;;11.10;99.90;;;;;;4138177;28;20034;-73
2021/11/02 13:10:16;;;;;;;5.97;2.63;;;11.20;99.90;;;;;;4137293;28;20050;-73
2021/11/02 13:12:25;;;;;;;3.50;1.80;;;11.20;99.90;;;;;;4137052;28;20042;-71
2021/11/02 13:14:47;;;;;;;4.68;2.42;;;11.20;99.90;;;;;;4133613;28;20441;-73
2021/11/02 13:17:00;;;;;;;3.85;1.98;;;11.10;99.90;;;;;;4136440;28;20026;-73
2021/11/02 13:19:14;;;;;;;4.18;1.88;;;11.20;99.90;;;;;;4136817;28;20312;-74
2021/11/02 13:21:30;;;;;;;3.15;2.00;;;11.20;99.90;;;;;;4134038;28;20049;-74
2021/11/02 13:23:39;;;;;;;4.18;2.58;;;11.20;99.90;;;;;;4132260;28;20068;-73
2021/11/02 13:25:45;;;;;;;6.05;2.53;;;11.30;99.90;;;;;;4133265;28;20524;-73
2021/11/02 13:27:47;;;;;;;5.43;2.30;;;11.30;99.90;;;;;;4133353;28;20041;-73
2021/11/02 13:29:48;;;;;;;4.13;2.20;;;11.20;99.90;;;;;;4136099;28;20037;-73
2021/11/02 13:31:53;;;;;;;4.32;2.47;;;11.30;99.90;;;;;;4136285;28;20050;-73
2021/11/02 13:33:58;;;;;;;2.92;2.20;;;11.40;99.90;;;;;;4135610;28;20048;-74
2021/11/02 13:36:04;;;;;;;4.05;2.13;;;11.40;99.90;;;;;;4131668;28;20038;-73
2021/11/02 13:38:40;;;;;;;3.67;2.10;;;11.40;99.90;;;;;;4136599;28;20441;-74
2021/11/02 13:40:41;;;;;;;3.92;2.40;;;11.50;99.90;;;;;;4117122;28;20118;-74
2021/11/02 13:42:51;;;;;;;6.35;2.45;;;11.50;99.90;;;;;;4138161;28;20038;-72
2021/11/02 13:44:54;;;;;;;3.95;2.30;;;11.40;99.90;;;;;;4137383;28;20031;-73
2021/11/02 13:46:56;;;;;;;3.95;1.65;;;11.40;99.90;;;;;;4139179;28;20027;-73
2021/11/02 13:48:57;;;;;;;4.30;2.10;;;11.50;99.90;;;;;;4138630;28;20092;-73
2021/11/02 13:50:58;;;;;;;4.00;2.50;;;11.50;99.90;;;;;;4141344;28;20122;-73
2021/11/02 13:53:05;;;;;;;4.30;2.45;;;11.50;99.90;;;;;;4134932;28;20061;-73
2021/11/02 13:55:07;;;;;;;4.53;2.10;;;11.50;99.90;;;;;;4136439;28;20370;-73
2021/11/02 13:57:09;;;;;;;5.40;2.50;;;11.50;99.90;;;;;;4139353;28;20045;-73
2021/11/02 13:59:10;;;;;;;;;;;11.40;99.90;;;;;;4135755;28;20078;-73
2021/11/02 14:01:50;;;;;;;5.93;2.20;;;11.50;99.90;;;;;;4132333;28;19964;-73
2021/11/02 14:03:54;;;;;;;3.75;2.08;;;11.40;99.90;;;;;;4136069;28;20331;-73
2021/11/02 14:05:59;;;;;;;4.22;1.90;;;11.40;99.90;;;;;;4136734;28;20037;-73
2021/11/02 14:08:06;;;;;;;6.15;2.08;;;11.40;99.90;;;;;;4138185;28;20689;-73
2021/11/02 14:10:09;;;;;;;2.55;1.85;;;11.40;99.90;;;;;;4140557;28;20034;-73
2021/11/02 14:12:27;;;;;;;3.45;1.80;;;11.30;99.90;;;;;;4137108;28;20113;-73
2021/11/02 14:14:38;;;;;;;4.13;2.20;;;11.40;99.90;;;;;;4134790;28;20094;-73
2021/11/02 14:16:43;;;;;;;2.55;1.73;;;11.40;99.90;;;;;;4134855;28;20022;-73
2021/11/02 14:18:45;;;;;;;4.35;1.80;;;11.40;99.90;;;;;;4133017;28;20072;-73
2021/11/02 14:20:49;;;;;;;5.00;1.88;;;11.40;99.90;;;;;;4135310;28;20053;-73
2021/11/02 14:22:52;;;;;;;7.88;1.88;;;11.40;99.90;;;;;;4136365;28;20039;-73
2021/11/02 14:25:32;;;;;;;3.40;1.65;;;11.40;99.90;;;;;;4135983;28;20082;-73
2021/11/02 14:27:53;;;;;;;5.90;2.00;;;11.40;99.90;;;;;;4122728;28;20050;-73
2021/11/02 14:29:58;;;;;;;3.25;1.63;;;11.40;99.90;;;;;;4134004;28;20042;-73
2021/11/02 14:32:01;;;;;;;3.80;1.77;;;11.30;99.90;;;;;;4116893;28;20123;-73
2021/11/02 14:34:01;;;;;;;5.70;1.92;;;11.30;99.90;;;;;;4135406;28;20068;-71
2021/11/02 14:36:04;;;;;;;3.53;1.80;;;11.30;99.90;;;;;;4135815;28;20049;-71
2021/11/02 14:38:07;;;;;;;3.70;1.92;;;11.30;99.90;;;;;;4138292;28;20808;-71
2021/11/02 14:40:11;;;;;;;3.20;1.83;;;11.30;99.90;;;;;;4137306;28;20030;-71
2021/11/02 14:42:51;;;;;;;4.85;2.42;;;11.30;99.90;;;;;;4136161;28;20038;-71
2021/11/02 14:44:51;;;;;;;4.90;2.33;;;11.30;99.90;;;;;;4132152;28;20596;-71
2021/11/02 14:46:57;;;;;;;4.35;2.00;;;11.40;99.90;;;;;;4134335;28;20030;-72
2021/11/02 14:48:58;;;;;;;4.18;2.10;;;11.40;99.90;;;;;;4135455;28;20035;-72
2021/11/02 14:51:02;;;;;;;6.22;2.60;;;11.30;99.90;;;;;;4130631;28;20034;-72
2021/11/02 14:53:30;;;;;;;6.22;2.35;;;11.30;99.90;;;;;;4134948;28;20042;-72
2021/11/02 14:55:54;;;;;;;6.82;2.10;;;11.30;99.90;;;;;;4132494;28;20393;-72
2021/11/02 14:57:54;;;;;;;;;;;11.30;99.90;;;;;;4133318;28;20101;-72
2021/11/02 14:59:57;;;;;;;13.20;1.70;;;11.30;99.90;;;;;;4129976;28;20385;-72
2021/11/02 15:02:05;;;;;;;4.40;2.00;;;11.20;99.90;;;;;;4132287;28;20034;-72
2021/11/02 15:04:14;;;;;;;2.83;1.70;;;11.20;99.90;;;;;;4130493;28;20034;-72
2021/11/02 15:06:16;;;;;;;4.18;1.90;;;11.20;99.90;;;;;;4132806;28;20064;-72
2021/11/02 15:08:21;;;;;;;4.88;1.92;;;11.20;99.90;;;;;;4130877;28;21003;-72
2021/11/02 15:10:22;;;;;;;3.92;2.08;;;11.20;99.90;;;;;;4132002;28;20026;-73
2021/11/02 15:12:24;;;;;;;3.97;1.75;;;11.30;99.90;;;;;;4134871;28;20058;-72
2021/11/02 15:14:27;;;;;;;2.88;1.75;;;11.20;99.90;;;;;;4132803;28;20030;-72
2021/11/02 15:16:28;;;;;;;2.65;1.48;;;11.20;99.90;;;;;;4133174;28;20528;-73
2021/11/02 15:18:39;;;;;;;2.80;1.58;;;11.20;99.90;;;;;;4139249;28;20060;-72
2021/11/02 15:20:40;;;;;;;2.85;1.50;;;11.20;99.90;;;;;;4130243;28;20046;-73
2021/11/02 15:22:42;;;;;;;6.32;2.35;;;11.20;99.90;;;;;;4129860;28;20134;-72
2021/11/02 15:24:54;;;;;;;4.30;1.85;;;11.00;99.90;;;;;;4125965;28;20428;-73
2021/11/02 15:27:10;;;;;;;4.20;1.70;;;11.10;99.90;;;;;;4110529;28;20057;-73
2021/11/02 15:29:11;;;;;;;3.13;1.90;;;11.10;99.90;;;;;;4129532;28;20065;-72
2021/11/02 15:31:19;;;;;;;3.13;1.83;;;11.10;99.90;;;;;;4128361;28;20119;-73
2021/11/02 15:33:32;;;;;;;5.55;2.13;;;11.20;99.90;;;;;;4117597;28;20101;-72
2021/11/02 15:35:33;;;;;;;2.65;1.33;;;11.10;99.90;;;;;;4128369;28;20038;-72
2021/11/02 15:37:35;;;;;;;4.95;2.30;;;11.00;99.90;;;;;;4129213;28;20046;-72
2021/11/02 15:39:36;;;;;;;2.88;2.00;;;11.00;99.90;;;;;;4135290;28;20039;-72
2021/11/02 15:41:38;;;;;;;1.60;1.40;;;11.00;99.90;;;;;;4132484;28;20042;-72
2021/11/02 15:43:59;;;;;;;2.72;1.48;;;11.00;99.90;;;;;;4130490;28;20035;-72
2021/11/02 15:46:00;;;;;;;4.15;1.73;;;11.00;99.90;;;;;;4128491;28;20524;-73
2021/11/02 15:48:08;;;;;;;3.08;1.33;;;11.00;99.90;;;;;;4124708;28;20034;-72
2021/11/02 15:50:14;;;;;;;2.10;1.90;;;11.00;99.90;;;;;;4131842;28;20038;-72
2021/11/02 15:52:15;;;;;;;4.18;1.77;;;11.00;99.90;;;;;;4127892;28;20065;-72
2021/11/02 15:54:19;;;;;;;2.25;2.05;;;10.90;99.90;;;;;;4128239;28;20034;-72
2021/11/02 15:56:27;;;;;;;6.05;2.08;;;10.90;99.90;;;;;;4132230;28;20062;-72
2021/11/02 15:58:29;;;;;;;2.80;1.70;;;10.90;99.90;;;;;;4130141;28;20046;-72
2021/11/02 16:00:31;;;;;;;;;;;10.90;99.90;;;;;;4122589;28;20041;-72
2021/11/02 16:02:40;;;;;;;3.65;1.63;;;10.90;99.90;;;;;;4128675;28;19951;-73
2021/11/02 16:04:41;;;;;;;1.60;1.30;;;10.80;99.90;;;;;;4127576;28;20042;-72
2021/11/02 16:07:06;;;;;;;1.50;1.25;;;10.80;99.90;;;;;;4131522;28;20061;-72
2021/11/02 16:09:07;;;;;;;3.50;1.42;;;10.80;99.90;;;;;;4117576;28;20054;-72
2021/11/02 16:11:11;;;;;;;3.13;1.85;;;10.80;99.90;;;;;;4128402;28;20042;-72